Descanso, CA (91916)

8:51 AM PDT on September 04, 2015 (GMT -0700)
Descanso/Sherilton Valley | | Change Station
CLOSE
Current Station
Personal Weather Station
Location: Descanso, CA
Elevation: 3363 ft
Nearby Weather Stations

Elev 3363 ft 32.91 °N, 116.62 °W | Updated 59 minutes ago

Overcast
Overcast
56.2 °F
Feels Like 56.2 °F
N
0.0
Wind Variable Wind from East
Gusts 0.0 mph

Today
High -- | Low -- °F
--% Chance of Precip.
Yesterday
High -- | Low -- °F
Precip. -- in
6:22 AM 7:07 PM
Waning Gibbous, 58% visible
Pressure 29.85 in
Visibility -9999.0 miles
Clouds
Dew Point 47 °F
Humidity 71%
Rainfall 0.00 in
Snow Depth Not available.
UV Not available.
Pollen 7.70 out of 12
Air Quality Not available.
Flu Activity Not available.
METAR KCZZ 041452Z AUTO 07003KT 12/12 A2991 RMK AO1 SLP106 T01220117 53011
Pressure 29.85 in
Visibility -9999.0 miles
Clouds
Dew Point 47 °F
Humidity 71%
Rainfall 0.00 in
Snow Depth Not available.
UV Not available.
Pollen 7.70 out of 12
Air Quality Not available.
Flu Activity Not available.
METAR KCZZ 041452Z AUTO 07003KT 12/12 A2991 RMK AO1 SLP106 T01220117 53011

10-Day Weather Forecast

×

Almanac

Astronomy

Sep. 04, 2015 Rise Set
Actual Time
Civil Twilight
Nautical Twilight
Astronomical Twilight
Moon
Length of Visible Light
Length of Day
Tomorrow will be .
, % of the Moon is Illuminated

Today's Extremes

State Highs State Lows

Community

WunderPhotos

Upload Photos

1,852,197 photos uploaded!

WunderBlogs® & News

Nearby

Air Quality

  Air Quality AQ Index Pollutant
Not available.

Snow Depth

Station Depth Elevation

Earthquake Activity

City Distance Mag. Time & Date
Minimum magnitude displayed is 2.5.

Coastal Water Temperatures

Place Temperature

Stations

Nearby Weather Stations

Station Location Temp. Windchill Dew Point Humidity Wind Precip. Elev Updated Type